sensor_id;sensor_type;location;lat;lon;timestamp;P1;durP1;ratioP1;P2;durP2;ratioP2
15536;SDS011;7870;52.448;13.270;2023-08-07T00:01:52;2.97;;;1.85;;
15536;SDS011;7870;52.448;13.270;2023-08-07T00:04:19;2.78;;;2.13;;
15536;SDS011;7870;52.448;13.270;2023-08-07T00:06:46;3.30;;;2.53;;
15536;SDS011;7870;52.448;13.270;2023-08-07T00:09:12;4.38;;;2.65;;
15536;SDS011;7870;52.448;13.270;2023-08-07T00:11:39;2.40;;;1.83;;
15536;SDS011;7870;52.448;13.270;2023-08-07T00:14:05;2.65;;;1.90;;
15536;SDS011;7870;52.448;13.270;2023-08-07T00:16:32;3.00;;;2.28;;
15536;SDS011;7870;52.448;13.270;2023-08-07T00:18:58;3.47;;;2.75;;
15536;SDS011;7870;52.448;13.270;2023-08-07T00:21:25;4.10;;;2.95;;
15536;SDS011;7870;52.448;13.270;2023-08-07T00:23:51;4.50;;;2.70;;
15536;SDS011;7870;52.448;13.270;2023-08-07T00:26:18;5.30;;;3.83;;
15536;SDS011;7870;52.448;13.270;2023-08-07T00:28:44;5.78;;;3.45;;
15536;SDS011;7870;52.448;13.270;2023-08-07T00:31:11;5.05;;;3.47;;
15536;SDS011;7870;52.448;13.270;2023-08-07T00:33:39;6.72;;;3.50;;
15536;SDS011;7870;52.448;13.270;2023-08-07T00:36:07;4.68;;;3.50;;
15536;SDS011;7870;52.448;13.270;2023-08-07T00:38:34;5.43;;;3.17;;
15536;SDS011;7870;52.448;13.270;2023-08-07T00:41:01;4.50;;;3.38;;
15536;SDS011;7870;52.448;13.270;2023-08-07T00:43:27;4.07;;;3.50;;
15536;SDS011;7870;52.448;13.270;2023-08-07T00:45:54;3.92;;;3.45;;
15536;SDS011;7870;52.448;13.270;2023-08-07T00:48:20;5.18;;;3.33;;
15536;SDS011;7870;52.448;13.270;2023-08-07T00:50:47;5.20;;;3.28;;
15536;SDS011;7870;52.448;13.270;2023-08-07T00:53:14;5.70;;;3.30;;
15536;SDS011;7870;52.448;13.270;2023-08-07T00:55:41;4.30;;;3.00;;
15536;SDS011;7870;52.448;13.270;2023-08-07T00:58:08;4.00;;;3.40;;
15536;SDS011;7870;52.448;13.270;2023-08-07T01:00:35;6.03;;;3.30;;
15536;SDS011;7870;52.448;13.270;2023-08-07T01:03:04;5.25;;;3.67;;
15536;SDS011;7870;52.448;13.270;2023-08-07T01:05:32;5.03;;;3.13;;
15536;SDS011;7870;52.448;13.270;2023-08-07T01:07:58;4.10;;;3.25;;
15536;SDS011;7870;52.448;13.270;2023-08-07T01:10:29;5.63;;;3.50;;
15536;SDS011;7870;52.448;13.270;2023-08-07T01:13:05;4.07;;;3.17;;
15536;SDS011;7870;52.448;13.270;2023-08-07T01:15:39;3.97;;;2.95;;
15536;SDS011;7870;52.448;13.270;2023-08-07T01:18:06;5.47;;;3.08;;
15536;SDS011;7870;52.448;13.270;2023-08-07T01:20:33;3.47;;;2.58;;
15536;SDS011;7870;52.448;13.270;2023-08-07T01:23:00;4.22;;;3.50;;
15536;SDS011;7870;52.448;13.270;2023-08-07T01:25:27;4.65;;;2.90;;
15536;SDS011;7870;52.448;13.270;2023-08-07T01:30:49;5.30;;;3.58;;
15536;SDS011;7870;52.448;13.270;2023-08-07T01:33:19;4.45;;;3.78;;
15536;SDS011;7870;52.448;13.270;2023-08-07T01:35:54;4.25;;;2.85;;
15536;SDS011;7870;52.448;13.270;2023-08-07T01:38:24;5.32;;;3.10;;
15536;SDS011;7870;52.448;13.270;2023-08-07T01:40:51;3.67;;;2.90;;
15536;SDS011;7870;52.448;13.270;2023-08-07T01:43:19;3.80;;;2.60;;
15536;SDS011;7870;52.448;13.270;2023-08-07T01:45:45;4.18;;;2.72;;
15536;SDS011;7870;52.448;13.270;2023-08-07T01:48:12;5.20;;;3.33;;
15536;SDS011;7870;52.448;13.270;2023-08-07T01:50:39;4.10;;;3.35;;
15536;SDS011;7870;52.448;13.270;2023-08-07T01:53:05;4.82;;;3.20;;
15536;SDS011;7870;52.448;13.270;2023-08-07T01:55:32;3.47;;;2.92;;
15536;SDS011;7870;52.448;13.270;2023-08-07T01:57:58;4.03;;;2.85;;
15536;SDS011;7870;52.448;13.270;2023-08-07T02:00:25;4.75;;;3.35;;
15536;SDS011;7870;52.448;13.270;2023-08-07T02:02:51;6.68;;;3.70;;
15536;SDS011;7870;52.448;13.270;2023-08-07T02:05:18;4.15;;;3.45;;
15536;SDS011;7870;52.448;13.270;2023-08-07T02:07:45;4.25;;;3.40;;
15536;SDS011;7870;52.448;13.270;2023-08-07T02:10:11;4.80;;;3.42;;
15536;SDS011;7870;52.448;13.270;2023-08-07T02:12:38;4.47;;;3.42;;
15536;SDS011;7870;52.448;13.270;2023-08-07T02:15:05;6.35;;;4.00;;
15536;SDS011;7870;52.448;13.270;2023-08-07T02:17:31;5.43;;;3.78;;
15536;SDS011;7870;52.448;13.270;2023-08-07T02:19:59;9.40;;;4.55;;
15536;SDS011;7870;52.448;13.270;2023-08-07T02:22:25;4.78;;;3.45;;
15536;SDS011;7870;52.448;13.270;2023-08-07T02:24:52;6.10;;;3.83;;
15536;SDS011;7870;52.448;13.270;2023-08-07T02:27:19;5.15;;;4.10;;
15536;SDS011;7870;52.448;13.270;2023-08-07T02:29:46;6.13;;;4.20;;
15536;SDS011;7870;52.448;13.270;2023-08-07T02:32:12;4.97;;;3.50;;
15536;SDS011;7870;52.448;13.270;2023-08-07T02:34:39;6.18;;;3.60;;
15536;SDS011;7870;52.448;13.270;2023-08-07T02:37:05;6.65;;;4.45;;
15536;SDS011;7870;52.448;13.270;2023-08-07T02:39:32;5.60;;;4.15;;
15536;SDS011;7870;52.448;13.270;2023-08-07T02:41:58;5.95;;;4.30;;
15536;SDS011;7870;52.448;13.270;2023-08-07T02:44:25;4.97;;;4.03;;
15536;SDS011;7870;52.448;13.270;2023-08-07T02:46:52;5.75;;;4.70;;
15536;SDS011;7870;52.448;13.270;2023-08-07T02:49:19;6.72;;;4.43;;
15536;SDS011;7870;52.448;13.270;2023-08-07T02:51:45;5.90;;;4.75;;
15536;SDS011;7870;52.448;13.270;2023-08-07T02:54:12;6.85;;;4.72;;
15536;SDS011;7870;52.448;13.270;2023-08-07T02:56:39;5.78;;;4.60;;
15536;SDS011;7870;52.448;13.270;2023-08-07T02:59:05;6.93;;;3.85;;
15536;SDS011;7870;52.448;13.270;2023-08-07T03:01:32;6.82;;;4.70;;
15536;SDS011;7870;52.448;13.270;2023-08-07T03:03:59;5.60;;;4.22;;
15536;SDS011;7870;52.448;13.270;2023-08-07T03:06:25;5.78;;;4.53;;
15536;SDS011;7870;52.448;13.270;2023-08-07T03:08:52;6.65;;;5.03;;
15536;SDS011;7870;52.448;13.270;2023-08-07T03:11:18;6.75;;;4.68;;
15536;SDS011;7870;52.448;13.270;2023-08-07T03:13:45;6.45;;;5.07;;
15536;SDS011;7870;52.448;13.270;2023-08-07T03:16:11;4.95;;;4.45;;
15536;SDS011;7870;52.448;13.270;2023-08-07T03:18:38;5.13;;;3.65;;
15536;SDS011;7870;52.448;13.270;2023-08-07T03:21:04;5.88;;;4.78;;
15536;SDS011;7870;52.448;13.270;2023-08-07T03:23:31;5.63;;;5.00;;
15536;SDS011;7870;52.448;13.270;2023-08-07T03:26:04;9.45;;;5.32;;
15536;SDS011;7870;52.448;13.270;2023-08-07T03:28:36;6.05;;;4.78;;
15536;SDS011;7870;52.448;13.270;2023-08-07T03:31:03;5.47;;;4.43;;
15536;SDS011;7870;52.448;13.270;2023-08-07T03:33:31;9.35;;;6.15;;
15536;SDS011;7870;52.448;13.270;2023-08-07T03:35:58;7.15;;;5.38;;
15536;SDS011;7870;52.448;13.270;2023-08-07T03:38:24;6.45;;;4.68;;
15536;SDS011;7870;52.448;13.270;2023-08-07T03:40:54;6.95;;;4.95;;
15536;SDS011;7870;52.448;13.270;2023-08-07T03:43:21;6.32;;;4.97;;
15536;SDS011;7870;52.448;13.270;2023-08-07T03:45:47;5.93;;;5.32;;
15536;SDS011;7870;52.448;13.270;2023-08-07T03:48:14;6.63;;;4.85;;
15536;SDS011;7870;52.448;13.270;2023-08-07T03:50:40;6.68;;;4.88;;
15536;SDS011;7870;52.448;13.270;2023-08-07T03:53:07;7.43;;;4.80;;
15536;SDS011;7870;52.448;13.270;2023-08-07T03:55:39;5.65;;;4.75;;
15536;SDS011;7870;52.448;13.270;2023-08-07T03:58:08;6.22;;;4.30;;
15536;SDS011;7870;52.448;13.270;2023-08-07T04:00:34;6.90;;;4.68;;
15536;SDS011;7870;52.448;13.270;2023-08-07T04:03:01;4.70;;;3.90;;
15536;SDS011;7870;52.448;13.270;2023-08-07T04:05:29;6.15;;;4.20;;
15536;SDS011;7870;52.448;13.270;2023-08-07T04:07:59;5.60;;;4.45;;
15536;SDS011;7870;52.448;13.270;2023-08-07T04:10:26;7.22;;;4.47;;
15536;SDS011;7870;52.448;13.270;2023-08-07T04:12:52;5.90;;;4.18;;
15536;SDS011;7870;52.448;13.270;2023-08-07T04:15:20;5.72;;;4.50;;
15536;SDS011;7870;52.448;13.270;2023-08-07T04:17:47;6.43;;;4.70;;
15536;SDS011;7870;52.448;13.270;2023-08-07T04:20:13;6.03;;;4.53;;
15536;SDS011;7870;52.448;13.270;2023-08-07T04:22:40;8.27;;;4.50;;
15536;SDS011;7870;52.448;13.270;2023-08-07T04:25:07;4.38;;;3.55;;
15536;SDS011;7870;52.448;13.270;2023-08-07T04:27:34;5.38;;;3.50;;
15536;SDS011;7870;52.448;13.270;2023-08-07T04:30:00;5.43;;;4.03;;
15536;SDS011;7870;52.448;13.270;2023-08-07T04:32:27;6.70;;;4.18;;
15536;SDS011;7870;52.448;13.270;2023-08-07T04:34:53;7.00;;;4.25;;
15536;SDS011;7870;52.448;13.270;2023-08-07T04:37:20;8.02;;;3.72;;
15536;SDS011;7870;52.448;13.270;2023-08-07T04:39:47;5.60;;;3.35;;
15536;SDS011;7870;52.448;13.270;2023-08-07T04:42:13;5.93;;;3.35;;
15536;SDS011;7870;52.448;13.270;2023-08-07T04:44:40;4.68;;;3.17;;
15536;SDS011;7870;52.448;13.270;2023-08-07T04:47:06;5.13;;;3.50;;
15536;SDS011;7870;52.448;13.270;2023-08-07T04:49:33;4.50;;;3.42;;
15536;SDS011;7870;52.448;13.270;2023-08-07T04:51:59;4.97;;;3.28;;
15536;SDS011;7870;52.448;13.270;2023-08-07T04:54:38;6.13;;;3.60;;
15536;SDS011;7870;52.448;13.270;2023-08-07T04:57:04;4.90;;;3.50;;
15536;SDS011;7870;52.448;13.270;2023-08-07T04:59:31;3.83;;;3.13;;
15536;SDS011;7870;52.448;13.270;2023-08-07T05:01:58;6.07;;;3.60;;
15536;SDS011;7870;52.448;13.270;2023-08-07T05:04:24;4.60;;;3.40;;
15536;SDS011;7870;52.448;13.270;2023-08-07T05:06:51;5.15;;;3.58;;
15536;SDS011;7870;52.448;13.270;2023-08-07T05:09:18;4.75;;;3.00;;
15536;SDS011;7870;52.448;13.270;2023-08-07T05:11:44;4.45;;;3.17;;
15536;SDS011;7870;52.448;13.270;2023-08-07T05:14:11;5.65;;;3.63;;
15536;SDS011;7870;52.448;13.270;2023-08-07T05:16:37;5.63;;;3.22;;
15536;SDS011;7870;52.448;13.270;2023-08-07T05:19:04;5.15;;;3.80;;
15536;SDS011;7870;52.448;13.270;2023-08-07T05:21:31;4.70;;;3.22;;
15536;SDS011;7870;52.448;13.270;2023-08-07T05:23:57;3.65;;;2.70;;
15536;SDS011;7870;52.448;13.270;2023-08-07T05:26:24;3.30;;;2.70;;
15536;SDS011;7870;52.448;13.270;2023-08-07T05:28:50;4.07;;;2.65;;
15536;SDS011;7870;52.448;13.270;2023-08-07T05:31:17;3.65;;;3.00;;
15536;SDS011;7870;52.448;13.270;2023-08-07T05:33:43;4.47;;;3.22;;
15536;SDS011;7870;52.448;13.270;2023-08-07T05:36:10;4.63;;;2.78;;
15536;SDS011;7870;52.448;13.270;2023-08-07T05:38:36;5.00;;;2.92;;
15536;SDS011;7870;52.448;13.270;2023-08-07T05:41:03;5.65;;;3.47;;
15536;SDS011;7870;52.448;13.270;2023-08-07T05:43:29;4.70;;;3.25;;
15536;SDS011;7870;52.448;13.270;2023-08-07T05:45:56;5.03;;;3.33;;
15536;SDS011;7870;52.448;13.270;2023-08-07T05:48:22;4.47;;;3.38;;
15536;SDS011;7870;52.448;13.270;2023-08-07T05:50:50;3.83;;;3.17;;
15536;SDS011;7870;52.448;13.270;2023-08-07T05:53:17;4.07;;;3.13;;
15536;SDS011;7870;52.448;13.270;2023-08-07T05:55:43;4.10;;;2.78;;
15536;SDS011;7870;52.448;13.270;2023-08-07T05:58:10;4.00;;;2.58;;
15536;SDS011;7870;52.448;13.270;2023-08-07T06:00:37;5.32;;;2.92;;
15536;SDS011;7870;52.448;13.270;2023-08-07T06:03:03;4.85;;;3.08;;
15536;SDS011;7870;52.448;13.270;2023-08-07T06:05:30;3.95;;;2.65;;
15536;SDS011;7870;52.448;13.270;2023-08-07T06:07:57;3.88;;;2.58;;
15536;SDS011;7870;52.448;13.270;2023-08-07T06:10:23;3.75;;;2.60;;
15536;SDS011;7870;52.448;13.270;2023-08-07T06:12:50;4.53;;;2.70;;
15536;SDS011;7870;52.448;13.270;2023-08-07T06:15:16;4.50;;;2.60;;
15536;SDS011;7870;52.448;13.270;2023-08-07T06:17:43;3.83;;;2.17;;
15536;SDS011;7870;52.448;13.270;2023-08-07T06:20:10;6.43;;;2.90;;
15536;SDS011;7870;52.448;13.270;2023-08-07T06:22:38;4.65;;;2.50;;
15536;SDS011;7870;52.448;13.270;2023-08-07T06:25:04;3.97;;;2.55;;
15536;SDS011;7870;52.448;13.270;2023-08-07T06:27:33;4.57;;;2.20;;
15536;SDS011;7870;52.448;13.270;2023-08-07T06:29:59;5.15;;;2.65;;
15536;SDS011;7870;52.448;13.270;2023-08-07T06:32:26;3.70;;;2.15;;
15536;SDS011;7870;52.448;13.270;2023-08-07T06:34:52;3.10;;;1.92;;
15536;SDS011;7870;52.448;13.270;2023-08-07T06:37:19;4.45;;;2.40;;
15536;SDS011;7870;52.448;13.270;2023-08-07T06:39:46;3.45;;;2.05;;
15536;SDS011;7870;52.448;13.270;2023-08-07T06:42:14;3.53;;;2.30;;
15536;SDS011;7870;52.448;13.270;2023-08-07T06:44:43;4.60;;;2.47;;
15536;SDS011;7870;52.448;13.270;2023-08-07T06:47:09;2.85;;;1.73;;
15536;SDS011;7870;52.448;13.270;2023-08-07T06:49:36;2.70;;;1.75;;
15536;SDS011;7870;52.448;13.270;2023-08-07T06:52:03;4.95;;;1.70;;
15536;SDS011;7870;52.448;13.270;2023-08-07T06:54:30;4.13;;;2.10;;
15536;SDS011;7870;52.448;13.270;2023-08-07T06:56:56;4.00;;;1.85;;
15536;SDS011;7870;52.448;13.270;2023-08-07T06:59:23;3.38;;;1.88;;
15536;SDS011;7870;52.448;13.270;2023-08-07T07:01:50;3.97;;;1.90;;
15536;SDS011;7870;52.448;13.270;2023-08-07T07:04:17;4.60;;;1.42;;
15536;SDS011;7870;52.448;13.270;2023-08-07T07:06:44;3.22;;;1.63;;
15536;SDS011;7870;52.448;13.270;2023-08-07T07:09:10;4.53;;;1.80;;
15536;SDS011;7870;52.448;13.270;2023-08-07T07:11:37;7.70;;;2.67;;
15536;SDS011;7870;52.448;13.270;2023-08-07T07:14:04;3.33;;;1.50;;
15536;SDS011;7870;52.448;13.270;2023-08-07T07:16:30;3.88;;;1.98;;
15536;SDS011;7870;52.448;13.270;2023-08-07T07:18:57;4.45;;;1.90;;
15536;SDS011;7870;52.448;13.270;2023-08-07T07:21:24;2.83;;;1.60;;
15536;SDS011;7870;52.448;13.270;2023-08-07T07:23:51;6.57;;;1.85;;
15536;SDS011;7870;52.448;13.270;2023-08-07T07:26:18;3.42;;;1.92;;
15536;SDS011;7870;52.448;13.270;2023-08-07T07:28:44;2.30;;;1.50;;
15536;SDS011;7870;52.448;13.270;2023-08-07T07:31:11;3.38;;;1.70;;
15536;SDS011;7870;52.448;13.270;2023-08-07T07:33:38;3.83;;;1.90;;
15536;SDS011;7870;52.448;13.270;2023-08-07T07:36:06;2.42;;;1.35;;
15536;SDS011;7870;52.448;13.270;2023-08-07T07:38:33;4.85;;;1.65;;
15536;SDS011;7870;52.448;13.270;2023-08-07T07:41:00;2.95;;;1.50;;
15536;SDS011;7870;52.448;13.270;2023-08-07T07:43:26;2.88;;;1.45;;
15536;SDS011;7870;52.448;13.270;2023-08-07T07:45:53;4.65;;;1.80;;
15536;SDS011;7870;52.448;13.270;2023-08-07T07:48:19;3.42;;;1.52;;
15536;SDS011;7870;52.448;13.270;2023-08-07T07:50:46;2.53;;;1.35;;
15536;SDS011;7870;52.448;13.270;2023-08-07T07:53:12;3.53;;;1.83;;
15536;SDS011;7870;52.448;13.270;2023-08-07T07:55:39;2.70;;;1.75;;
15536;SDS011;7870;52.448;13.270;2023-08-07T07:58:06;3.10;;;1.40;;
15536;SDS011;7870;52.448;13.270;2023-08-07T08:00:32;6.00;;;2.08;;
15536;SDS011;7870;52.448;13.270;2023-08-07T08:02:59;3.05;;;1.83;;
15536;SDS011;7870;52.448;13.270;2023-08-07T08:05:26;3.05;;;1.90;;
15536;SDS011;7870;52.448;13.270;2023-08-07T08:07:52;4.15;;;1.92;;
15536;SDS011;7870;52.448;13.270;2023-08-07T08:10:19;4.93;;;2.00;;
15536;SDS011;7870;52.448;13.270;2023-08-07T08:12:45;2.90;;;1.70;;
15536;SDS011;7870;52.448;13.270;2023-08-07T08:15:12;4.05;;;1.73;;
15536;SDS011;7870;52.448;13.270;2023-08-07T08:17:38;5.22;;;1.90;;
15536;SDS011;7870;52.448;13.270;2023-08-07T08:20:06;3.53;;;2.17;;
15536;SDS011;7870;52.448;13.270;2023-08-07T08:25:07;2.67;;;1.40;;
15536;SDS011;7870;52.448;13.270;2023-08-07T08:27:34;2.40;;;1.30;;
15536;SDS011;7870;52.448;13.270;2023-08-07T08:30:01;5.63;;;2.00;;
15536;SDS011;7870;52.448;13.270;2023-08-07T08:32:28;4.03;;;2.00;;
15536;SDS011;7870;52.448;13.270;2023-08-07T08:34:55;4.93;;;1.65;;
15536;SDS011;7870;52.448;13.270;2023-08-07T08:37:21;2.97;;;1.60;;
15536;SDS011;7870;52.448;13.270;2023-08-07T08:39:48;3.05;;;1.85;;
15536;SDS011;7870;52.448;13.270;2023-08-07T08:42:14;2.60;;;1.33;;
15536;SDS011;7870;52.448;13.270;2023-08-07T08:44:46;3.35;;;1.75;;
15536;SDS011;7870;52.448;13.270;2023-08-07T08:47:16;2.75;;;1.42;;
15536;SDS011;7870;52.448;13.270;2023-08-07T08:49:45;2.53;;;1.38;;
15536;SDS011;7870;52.448;13.270;2023-08-07T08:52:12;2.75;;;1.55;;
15536;SDS011;7870;52.448;13.270;2023-08-07T08:54:39;3.95;;;1.92;;
15536;SDS011;7870;52.448;13.270;2023-08-07T08:57:06;2.72;;;1.60;;
15536;SDS011;7870;52.448;13.270;2023-08-07T08:59:33;6.07;;;1.77;;
15536;SDS011;7870;52.448;13.270;2023-08-07T09:02:00;2.75;;;1.70;;
15536;SDS011;7870;52.448;13.270;2023-08-07T09:04:27;4.97;;;1.52;;
15536;SDS011;7870;52.448;13.270;2023-08-07T09:06:53;2.70;;;1.65;;
15536;SDS011;7870;52.448;13.270;2023-08-07T09:09:20;3.83;;;1.88;;
15536;SDS011;7870;52.448;13.270;2023-08-07T09:11:47;4.82;;;2.00;;
15536;SDS011;7870;52.448;13.270;2023-08-07T09:14:15;4.35;;;1.73;;
15536;SDS011;7870;52.448;13.270;2023-08-07T09:16:44;3.20;;;1.63;;
15536;SDS011;7870;52.448;13.270;2023-08-07T09:19:12;3.78;;;1.30;;
15536;SDS011;7870;52.448;13.270;2023-08-07T09:21:39;5.22;;;1.88;;
15536;SDS011;7870;52.448;13.270;2023-08-07T09:24:05;1.80;;;1.08;;
15536;SDS011;7870;52.448;13.270;2023-08-07T09:26:32;3.53;;;1.50;;
15536;SDS011;7870;52.448;13.270;2023-08-07T09:29:00;3.20;;;1.58;;
15536;SDS011;7870;52.448;13.270;2023-08-07T09:31:28;3.17;;;1.42;;
15536;SDS011;7870;52.448;13.270;2023-08-07T09:34:03;2.47;;;1.52;;
15536;SDS011;7870;52.448;13.270;2023-08-07T09:36:31;2.33;;;1.50;;
15536;SDS011;7870;52.448;13.270;2023-08-07T09:39:01;2.80;;;1.45;;
15536;SDS011;7870;52.448;13.270;2023-08-07T09:41:28;3.10;;;1.40;;
15536;SDS011;7870;52.448;13.270;2023-08-07T09:43:55;2.65;;;1.52;;
15536;SDS011;7870;52.448;13.270;2023-08-07T09:46:23;2.88;;;1.33;;
15536;SDS011;7870;52.448;13.270;2023-08-07T09:48:51;3.17;;;1.00;;
15536;SDS011;7870;52.448;13.270;2023-08-07T09:51:18;4.13;;;1.45;;
15536;SDS011;7870;52.448;13.270;2023-08-07T09:53:46;3.30;;;1.20;;
15536;SDS011;7870;52.448;13.270;2023-08-07T09:56:13;3.88;;;1.40;;
15536;SDS011;7870;52.448;13.270;2023-08-07T09:58:43;3.13;;;1.08;;
15536;SDS011;7870;52.448;13.270;2023-08-07T10:01:12;4.95;;;1.50;;
15536;SDS011;7870;52.448;13.270;2023-08-07T10:03:41;2.53;;;1.10;;
15536;SDS011;7870;52.448;13.270;2023-08-07T10:06:09;3.55;;;1.23;;
15536;SDS011;7870;52.448;13.270;2023-08-07T10:08:36;1.85;;;1.10;;
15536;SDS011;7870;52.448;13.270;2023-08-07T10:11:04;5.03;;;1.20;;
15536;SDS011;7870;52.448;13.270;2023-08-07T10:13:31;2.75;;;1.42;;
15536;SDS011;7870;52.448;13.270;2023-08-07T10:16:05;2.47;;;1.10;;
15536;SDS011;7870;52.448;13.270;2023-08-07T10:18:32;3.92;;;1.27;;
15536;SDS011;7870;52.448;13.270;2023-08-07T10:20:58;4.97;;;1.33;;
15536;SDS011;7870;52.448;13.270;2023-08-07T10:23:27;3.88;;;0.98;;
15536;SDS011;7870;52.448;13.270;2023-08-07T10:25:53;3.78;;;1.60;;
15536;SDS011;7870;52.448;13.270;2023-08-07T10:28:21;2.20;;;1.00;;
15536;SDS011;7870;52.448;13.270;2023-08-07T10:30:49;3.30;;;1.33;;
15536;SDS011;7870;52.448;13.270;2023-08-07T10:33:15;2.38;;;1.20;;
15536;SDS011;7870;52.448;13.270;2023-08-07T10:35:46;5.38;;;1.83;;
15536;SDS011;7870;52.448;13.270;2023-08-07T10:38:14;2.90;;;1.10;;
15536;SDS011;7870;52.448;13.270;2023-08-07T10:41:15;2.85;;;1.20;;
15536;SDS011;7870;52.448;13.270;2023-08-07T10:43:41;3.17;;;1.45;;
15536;SDS011;7870;52.448;13.270;2023-08-07T10:46:12;2.17;;;0.95;;
15536;SDS011;7870;52.448;13.270;2023-08-07T10:51:08;3.65;;;1.45;;
15536;SDS011;7870;52.448;13.270;2023-08-07T10:53:35;6.03;;;1.60;;
15536;SDS011;7870;52.448;13.270;2023-08-07T10:56:04;3.08;;;1.35;;
15536;SDS011;7870;52.448;13.270;2023-08-07T10:58:34;1.73;;;0.90;;
15536;SDS011;7870;52.448;13.270;2023-08-07T11:01:15;2.45;;;1.20;;
15536;SDS011;7870;52.448;13.270;2023-08-07T11:03:54;4.32;;;1.15;;
15536;SDS011;7870;52.448;13.270;2023-08-07T11:06:23;2.35;;;1.17;;
15536;SDS011;7870;52.448;13.270;2023-08-07T11:09:00;3.08;;;1.30;;
15536;SDS011;7870;52.448;13.270;2023-08-07T11:11:27;2.25;;;0.85;;
15536;SDS011;7870;52.448;13.270;2023-08-07T11:13:53;2.97;;;1.08;;
15536;SDS011;7870;52.448;13.270;2023-08-07T11:16:20;4.40;;;1.27;;
15536;SDS011;7870;52.448;13.270;2023-08-07T11:18:48;4.68;;;1.27;;
15536;SDS011;7870;52.448;13.270;2023-08-07T11:21:15;3.03;;;1.17;;
15536;SDS011;7870;52.448;13.270;2023-08-07T11:23:41;3.42;;;1.13;;
15536;SDS011;7870;52.448;13.270;2023-08-07T11:26:10;2.95;;;1.27;;
15536;SDS011;7870;52.448;13.270;2023-08-07T11:28:37;2.97;;;1.20;;
15536;SDS011;7870;52.448;13.270;2023-08-07T11:31:03;3.70;;;1.13;;
15536;SDS011;7870;52.448;13.270;2023-08-07T11:33:30;4.43;;;1.40;;
15536;SDS011;7870;52.448;13.270;2023-08-07T11:35:57;5.15;;;1.50;;
15536;SDS011;7870;52.448;13.270;2023-08-07T11:38:31;4.20;;;1.60;;
15536;SDS011;7870;52.448;13.270;2023-08-07T11:41:03;3.90;;;1.40;;
15536;SDS011;7870;52.448;13.270;2023-08-07T11:43:32;4.28;;;1.92;;
15536;SDS011;7870;52.448;13.270;2023-08-07T11:46:06;3.20;;;1.60;;
15536;SDS011;7870;52.448;13.270;2023-08-07T11:48:34;3.63;;;1.50;;
15536;SDS011;7870;52.448;13.270;2023-08-07T11:51:03;2.30;;;1.20;;
15536;SDS011;7870;52.448;13.270;2023-08-07T11:53:31;2.72;;;1.08;;
15536;SDS011;7870;52.448;13.270;2023-08-07T11:55:59;2.80;;;1.00;;
15536;SDS011;7870;52.448;13.270;2023-08-07T11:58:27;2.13;;;1.10;;
15536;SDS011;7870;52.448;13.270;2023-08-07T12:01:04;3.00;;;1.38;;
15536;SDS011;7870;52.448;13.270;2023-08-07T12:03:32;4.28;;;1.50;;
15536;SDS011;7870;52.448;13.270;2023-08-07T12:06:03;3.92;;;1.38;;
15536;SDS011;7870;52.448;13.270;2023-08-07T12:08:37;4.53;;;1.50;;
15536;SDS011;7870;52.448;13.270;2023-08-07T12:11:10;2.40;;;0.90;;
15536;SDS011;7870;52.448;13.270;2023-08-07T12:13:38;2.90;;;1.10;;
15536;SDS011;7870;52.448;13.270;2023-08-07T12:16:05;3.42;;;1.10;;
15536;SDS011;7870;52.448;13.270;2023-08-07T12:18:32;4.90;;;1.65;;
15536;SDS011;7870;52.448;13.270;2023-08-07T12:21:00;4.10;;;1.30;;
15536;SDS011;7870;52.448;13.270;2023-08-07T12:23:27;4.00;;;1.30;;
15536;SDS011;7870;52.448;13.270;2023-08-07T12:25:54;4.05;;;1.20;;
15536;SDS011;7870;52.448;13.270;2023-08-07T12:28:20;4.72;;;1.42;;
15536;SDS011;7870;52.448;13.270;2023-08-07T12:30:47;4.32;;;1.23;;
15536;SDS011;7870;52.448;13.270;2023-08-07T12:33:14;4.00;;;1.30;;
15536;SDS011;7870;52.448;13.270;2023-08-07T12:35:41;4.28;;;1.50;;
15536;SDS011;7870;52.448;13.270;2023-08-07T12:38:08;3.60;;;1.17;;
15536;SDS011;7870;52.448;13.270;2023-08-07T12:40:36;2.47;;;0.98;;
15536;SDS011;7870;52.448;13.270;2023-08-07T12:43:03;3.72;;;1.25;;
15536;SDS011;7870;52.448;13.270;2023-08-07T12:45:30;3.38;;;1.23;;
15536;SDS011;7870;52.448;13.270;2023-08-07T12:48:00;6.10;;;1.95;;
15536;SDS011;7870;52.448;13.270;2023-08-07T12:50:27;6.47;;;2.28;;
15536;SDS011;7870;52.448;13.270;2023-08-07T12:52:54;5.90;;;2.15;;
15536;SDS011;7870;52.448;13.270;2023-08-07T12:55:21;5.90;;;2.10;;
15536;SDS011;7870;52.448;13.270;2023-08-07T12:57:47;7.90;;;2.78;;
15536;SDS011;7870;52.448;13.270;2023-08-07T13:00:15;6.43;;;2.47;;
15536;SDS011;7870;52.448;13.270;2023-08-07T13:02:43;5.65;;;2.60;;
15536;SDS011;7870;52.448;13.270;2023-08-07T13:07:41;6.32;;;2.70;;
15536;SDS011;7870;52.448;13.270;2023-08-07T13:10:08;5.82;;;2.78;;
15536;SDS011;7870;52.448;13.270;2023-08-07T13:12:37;5.65;;;2.40;;
15536;SDS011;7870;52.448;13.270;2023-08-07T13:15:05;6.97;;;2.47;;
15536;SDS011;7870;52.448;13.270;2023-08-07T13:17:34;8.35;;;2.65;;
15536;SDS011;7870;52.448;13.270;2023-08-07T13:20:02;4.65;;;2.42;;
15536;SDS011;7870;52.448;13.270;2023-08-07T13:22:34;8.10;;;2.88;;
15536;SDS011;7870;52.448;13.270;2023-08-07T13:25:04;6.07;;;2.20;;
15536;SDS011;7870;52.448;13.270;2023-08-07T13:27:31;5.63;;;2.10;;
15536;SDS011;7870;52.448;13.270;2023-08-07T13:29:59;6.38;;;1.95;;
15536;SDS011;7870;52.448;13.270;2023-08-07T13:32:26;5.55;;;1.70;;
15536;SDS011;7870;52.448;13.270;2023-08-07T13:34:53;4.20;;;2.20;;
15536;SDS011;7870;52.448;13.270;2023-08-07T13:37:19;5.05;;;1.83;;
15536;SDS011;7870;52.448;13.270;2023-08-07T13:39:46;3.65;;;1.55;;
15536;SDS011;7870;52.448;13.270;2023-08-07T13:42:15;6.43;;;1.95;;
15536;SDS011;7870;52.448;13.270;2023-08-07T13:44:41;7.95;;;2.33;;
15536;SDS011;7870;52.448;13.270;2023-08-07T13:47:08;5.15;;;1.90;;
15536;SDS011;7870;52.448;13.270;2023-08-07T13:49:36;4.13;;;1.63;;
15536;SDS011;7870;52.448;13.270;2023-08-07T13:52:03;6.88;;;1.88;;
15536;SDS011;7870;52.448;13.270;2023-08-07T13:54:30;4.45;;;1.80;;
15536;SDS011;7870;52.448;13.270;2023-08-07T13:56:57;3.95;;;1.50;;
15536;SDS011;7870;52.448;13.270;2023-08-07T13:59:23;4.78;;;1.50;;
15536;SDS011;7870;52.448;13.270;2023-08-07T14:01:50;3.67;;;1.75;;
15536;SDS011;7870;52.448;13.270;2023-08-07T14:04:18;3.30;;;1.10;;
15536;SDS011;7870;52.448;13.270;2023-08-07T14:06:44;4.00;;;1.67;;
15536;SDS011;7870;52.448;13.270;2023-08-07T14:09:11;4.15;;;1.50;;
15536;SDS011;7870;52.448;13.270;2023-08-07T14:11:37;6.28;;;2.17;;
15536;SDS011;7870;52.448;13.270;2023-08-07T14:14:04;6.30;;;2.08;;
15536;SDS011;7870;52.448;13.270;2023-08-07T14:16:31;5.53;;;2.15;;
15536;SDS011;7870;52.448;13.270;2023-08-07T14:18:58;5.30;;;1.80;;
15536;SDS011;7870;52.448;13.270;2023-08-07T14:21:24;6.95;;;1.77;;
15536;SDS011;7870;52.448;13.270;2023-08-07T14:23:51;5.85;;;1.88;;
15536;SDS011;7870;52.448;13.270;2023-08-07T14:26:17;5.40;;;1.73;;
15536;SDS011;7870;52.448;13.270;2023-08-07T14:28:45;5.50;;;2.42;;
15536;SDS011;7870;52.448;13.270;2023-08-07T14:31:11;5.35;;;2.05;;
15536;SDS011;7870;52.448;13.270;2023-08-07T14:33:38;5.90;;;2.30;;
15536;SDS011;7870;52.448;13.270;2023-08-07T14:36:05;9.35;;;2.58;;
15536;SDS011;7870;52.448;13.270;2023-08-07T14:38:31;5.38;;;2.08;;
15536;SDS011;7870;52.448;13.270;2023-08-07T14:40:58;6.30;;;2.00;;
15536;SDS011;7870;52.448;13.270;2023-08-07T14:43:29;6.18;;;2.22;;
15536;SDS011;7870;52.448;13.270;2023-08-07T14:45:57;4.95;;;2.08;;
15536;SDS011;7870;52.448;13.270;2023-08-07T14:48:24;7.47;;;2.35;;
15536;SDS011;7870;52.448;13.270;2023-08-07T14:50:51;6.18;;;2.65;;
15536;SDS011;7870;52.448;13.270;2023-08-07T14:53:17;7.53;;;1.85;;
15536;SDS011;7870;52.448;13.270;2023-08-07T14:55:44;5.45;;;2.10;;
15536;SDS011;7870;52.448;13.270;2023-08-07T14:58:11;9.77;;;2.40;;
15536;SDS011;7870;52.448;13.270;2023-08-07T15:00:38;6.75;;;2.33;;